sensor_id;sensor_type;location;lat;lon;timestamp;P1;durP1;ratioP1;P2;durP2;ratioP2
63906;SDS011;50075;49.484;11.238;2022-12-18T00:03:56;50.92;;;8.55;;
63906;SDS011;50075;49.484;11.238;2022-12-18T00:06:22;46.97;;;9.35;;
63906;SDS011;50075;49.484;11.238;2022-12-18T00:08:49;43.60;;;9.45;;
63906;SDS011;50075;49.484;11.238;2022-12-18T00:11:16;62.78;;;10.27;;
63906;SDS011;50075;49.484;11.238;2022-12-18T00:13:43;49.10;;;8.73;;
63906;SDS011;50075;49.484;11.238;2022-12-18T00:16:09;52.97;;;10.55;;
63906;SDS011;50075;49.484;11.238;2022-12-18T00:18:37;48.05;;;9.30;;
63906;SDS011;50075;49.484;11.238;2022-12-18T00:21:04;50.03;;;8.70;;
63906;SDS011;50075;49.484;11.238;2022-12-18T00:23:31;44.50;;;8.70;;
63906;SDS011;50075;49.484;11.238;2022-12-18T00:26:01;44.97;;;7.28;;
63906;SDS011;50075;49.484;11.238;2022-12-18T00:28:28;42.78;;;8.35;;
63906;SDS011;50075;49.484;11.238;2022-12-18T00:31:02;37.55;;;7.22;;
63906;SDS011;50075;49.484;11.238;2022-12-18T00:33:35;63.53;;;9.60;;
63906;SDS011;50075;49.484;11.238;2022-12-18T00:36:05;54.85;;;7.63;;
63906;SDS011;50075;49.484;11.238;2022-12-18T00:38:36;62.33;;;9.93;;
63906;SDS011;50075;49.484;11.238;2022-12-18T00:41:02;65.07;;;11.32;;
63906;SDS011;50075;49.484;11.238;2022-12-18T00:43:28;61.75;;;10.90;;
63906;SDS011;50075;49.484;11.238;2022-12-18T00:45:53;55.42;;;9.32;;
63906;SDS011;50075;49.484;11.238;2022-12-18T00:48:19;51.67;;;7.25;;
63906;SDS011;50075;49.484;11.238;2022-12-18T00:50:44;92.18;;;13.23;;
63906;SDS011;50075;49.484;11.238;2022-12-18T00:53:10;56.65;;;9.88;;
63906;SDS011;50075;49.484;11.238;2022-12-18T00:55:39;57.35;;;8.90;;
63906;SDS011;50075;49.484;11.238;2022-12-18T00:58:05;56.17;;;8.70;;
63906;SDS011;50075;49.484;11.238;2022-12-18T01:00:31;57.42;;;10.95;;
63906;SDS011;50075;49.484;11.238;2022-12-18T01:02:56;64.25;;;11.63;;
63906;SDS011;50075;49.484;11.238;2022-12-18T01:05:21;66.55;;;11.73;;
63906;SDS011;50075;49.484;11.238;2022-12-18T01:07:47;42.00;;;6.35;;
63906;SDS011;50075;49.484;11.238;2022-12-18T01:10:12;48.85;;;7.20;;
63906;SDS011;50075;49.484;11.238;2022-12-18T01:12:38;42.92;;;7.57;;
63906;SDS011;50075;49.484;11.238;2022-12-18T01:15:04;43.15;;;7.28;;
63906;SDS011;50075;49.484;11.238;2022-12-18T01:17:31;38.00;;;6.68;;
63906;SDS011;50075;49.484;11.238;2022-12-18T01:19:56;37.63;;;7.00;;
63906;SDS011;50075;49.484;11.238;2022-12-18T01:22:22;47.13;;;7.18;;
63906;SDS011;50075;49.484;11.238;2022-12-18T01:24:47;38.03;;;6.25;;
63906;SDS011;50075;49.484;11.238;2022-12-18T01:27:13;40.70;;;6.50;;
63906;SDS011;50075;49.484;11.238;2022-12-18T01:29:38;42.00;;;6.97;;
63906;SDS011;50075;49.484;11.238;2022-12-18T01:32:04;39.22;;;8.07;;
63906;SDS011;50075;49.484;11.238;2022-12-18T01:34:29;52.20;;;6.60;;
63906;SDS011;50075;49.484;11.238;2022-12-18T01:36:54;39.05;;;5.85;;
63906;SDS011;50075;49.484;11.238;2022-12-18T01:39:20;42.00;;;7.75;;
63906;SDS011;50075;49.484;11.238;2022-12-18T01:41:45;36.42;;;6.72;;
63906;SDS011;50075;49.484;11.238;2022-12-18T01:49:57;41.20;;;7.97;;
63906;SDS011;50075;49.484;11.238;2022-12-18T01:52:26;43.65;;;10.40;;
63906;SDS011;50075;49.484;11.238;2022-12-18T01:54:54;36.38;;;6.25;;
63906;SDS011;50075;49.484;11.238;2022-12-18T01:57:20;42.92;;;10.35;;
63906;SDS011;50075;49.484;11.238;2022-12-18T01:59:49;49.00;;;9.02;;
63906;SDS011;50075;49.484;11.238;2022-12-18T02:02:17;43.05;;;7.63;;
63906;SDS011;50075;49.484;11.238;2022-12-18T02:04:43;65.47;;;12.52;;
63906;SDS011;50075;49.484;11.238;2022-12-18T02:09:47;48.25;;;6.97;;
63906;SDS011;50075;49.484;11.238;2022-12-18T02:12:22;33.53;;;6.50;;
63906;SDS011;50075;49.484;11.238;2022-12-18T02:14:55;44.13;;;9.07;;
63906;SDS011;50075;49.484;11.238;2022-12-18T02:17:30;42.70;;;7.45;;
63906;SDS011;50075;49.484;11.238;2022-12-18T02:20:21;67.00;;;15.90;;
63906;SDS011;50075;49.484;11.238;2022-12-18T02:28:27;38.17;;;8.60;;
63906;SDS011;50075;49.484;11.238;2022-12-18T02:30:56;57.67;;;12.18;;
63906;SDS011;50075;49.484;11.238;2022-12-18T02:33:26;37.67;;;8.05;;
63906;SDS011;50075;49.484;11.238;2022-12-18T02:35:53;54.75;;;13.27;;
63906;SDS011;50075;49.484;11.238;2022-12-18T02:38:20;37.00;;;6.75;;
63906;SDS011;50075;49.484;11.238;2022-12-18T02:40:46;63.60;;;9.77;;
63906;SDS011;50075;49.484;11.238;2022-12-18T02:43:14;53.38;;;10.48;;
63906;SDS011;50075;49.484;11.238;2022-12-18T02:45:50;37.78;;;7.35;;
63906;SDS011;50075;49.484;11.238;2022-12-18T02:48:22;40.33;;;7.30;;
63906;SDS011;50075;49.484;11.238;2022-12-18T02:50:59;56.22;;;8.82;;
63906;SDS011;50075;49.484;11.238;2022-12-18T02:54:27;26.90;;;5.00;;
63906;SDS011;50075;49.484;11.238;2022-12-18T02:56:49;30.33;;;4.90;;
63906;SDS011;50075;49.484;11.238;2022-12-18T02:59:23;39.67;;;6.28;;
63906;SDS011;50075;49.484;11.238;2022-12-18T03:02:24;39.53;;;6.50;;
63906;SDS011;50075;49.484;11.238;2022-12-18T03:05:10;38.20;;;5.60;;
63906;SDS011;50075;49.484;11.238;2022-12-18T03:07:42;27.85;;;4.85;;
63906;SDS011;50075;49.484;11.238;2022-12-18T03:10:19;35.20;;;5.85;;
63906;SDS011;50075;49.484;11.238;2022-12-18T03:12:51;29.67;;;4.18;;
63906;SDS011;50075;49.484;11.238;2022-12-18T03:15:28;25.55;;;4.78;;
63906;SDS011;50075;49.484;11.238;2022-12-18T03:18:02;37.00;;;6.15;;
63906;SDS011;50075;49.484;11.238;2022-12-18T03:20:35;42.90;;;5.72;;
63906;SDS011;50075;49.484;11.238;2022-12-18T03:23:07;32.85;;;5.47;;
63906;SDS011;50075;49.484;11.238;2022-12-18T03:25:39;32.75;;;5.53;;
63906;SDS011;50075;49.484;11.238;2022-12-18T03:28:09;34.58;;;5.18;;
63906;SDS011;50075;49.484;11.238;2022-12-18T03:30:39;51.00;;;5.28;;
63906;SDS011;50075;49.484;11.238;2022-12-18T03:33:19;31.25;;;5.82;;
63906;SDS011;50075;49.484;11.238;2022-12-18T03:35:52;45.53;;;6.93;;
63906;SDS011;50075;49.484;11.238;2022-12-18T03:38:17;32.40;;;4.75;;
63906;SDS011;50075;49.484;11.238;2022-12-18T03:40:45;55.63;;;7.38;;
63906;SDS011;50075;49.484;11.238;2022-12-18T03:43:20;28.55;;;4.50;;
63906;SDS011;50075;49.484;11.238;2022-12-18T03:45:54;32.80;;;5.43;;
63906;SDS011;50075;49.484;11.238;2022-12-18T03:48:44;35.47;;;4.38;;
63906;SDS011;50075;49.484;11.238;2022-12-18T03:51:20;45.13;;;6.30;;
63906;SDS011;50075;49.484;11.238;2022-12-18T03:54:01;31.83;;;5.32;;
63906;SDS011;50075;49.484;11.238;2022-12-18T03:56:29;34.70;;;5.97;;
63906;SDS011;50075;49.484;11.238;2022-12-18T03:58:58;33.25;;;5.10;;
63906;SDS011;50075;49.484;11.238;2022-12-18T04:01:28;33.75;;;4.55;;
63906;SDS011;50075;49.484;11.238;2022-12-18T04:03:58;38.60;;;6.05;;
63906;SDS011;50075;49.484;11.238;2022-12-18T04:06:25;48.53;;;6.22;;
63906;SDS011;50075;49.484;11.238;2022-12-18T04:08:52;28.83;;;5.03;;
63906;SDS011;50075;49.484;11.238;2022-12-18T04:11:18;39.88;;;5.78;;
63906;SDS011;50075;49.484;11.238;2022-12-18T04:13:43;28.00;;;5.32;;
63906;SDS011;50075;49.484;11.238;2022-12-18T04:16:09;33.13;;;4.75;;
63906;SDS011;50075;49.484;11.238;2022-12-18T04:18:35;26.00;;;3.55;;
63906;SDS011;50075;49.484;11.238;2022-12-18T04:21:01;39.85;;;5.88;;
63906;SDS011;50075;49.484;11.238;2022-12-18T04:23:27;45.58;;;5.97;;
63906;SDS011;50075;49.484;11.238;2022-12-18T04:25:53;37.72;;;6.60;;
63906;SDS011;50075;49.484;11.238;2022-12-18T04:28:18;30.92;;;5.13;;
63906;SDS011;50075;49.484;11.238;2022-12-18T04:30:44;45.63;;;4.72;;
63906;SDS011;50075;49.484;11.238;2022-12-18T04:33:10;28.77;;;5.22;;
63906;SDS011;50075;49.484;11.238;2022-12-18T04:35:36;35.53;;;6.47;;
63906;SDS011;50075;49.484;11.238;2022-12-18T04:38:01;36.25;;;5.88;;
63906;SDS011;50075;49.484;11.238;2022-12-18T04:40:27;31.15;;;4.85;;
63906;SDS011;50075;49.484;11.238;2022-12-18T04:42:52;23.58;;;2.92;;
63906;SDS011;50075;49.484;11.238;2022-12-18T04:45:17;36.35;;;5.45;;
63906;SDS011;50075;49.484;11.238;2022-12-18T04:47:43;49.13;;;7.85;;
63906;SDS011;50075;49.484;11.238;2022-12-18T04:50:08;40.55;;;8.20;;
63906;SDS011;50075;49.484;11.238;2022-12-18T04:52:34;37.97;;;7.15;;
63906;SDS011;50075;49.484;11.238;2022-12-18T04:54:59;31.77;;;5.97;;
63906;SDS011;50075;49.484;11.238;2022-12-18T04:57:25;35.92;;;5.80;;
63906;SDS011;50075;49.484;11.238;2022-12-18T04:59:51;48.58;;;8.10;;
63906;SDS011;50075;49.484;11.238;2022-12-18T05:02:16;33.63;;;8.82;;
63906;SDS011;50075;49.484;11.238;2022-12-18T05:04:41;42.28;;;9.27;;
63906;SDS011;50075;49.484;11.238;2022-12-18T05:07:07;49.05;;;10.00;;
63906;SDS011;50075;49.484;11.238;2022-12-18T05:09:32;29.17;;;6.97;;
63906;SDS011;50075;49.484;11.238;2022-12-18T05:11:57;34.92;;;5.10;;
63906;SDS011;50075;49.484;11.238;2022-12-18T05:14:23;39.40;;;6.07;;
63906;SDS011;50075;49.484;11.238;2022-12-18T05:16:48;32.92;;;7.40;;
63906;SDS011;50075;49.484;11.238;2022-12-18T05:19:14;45.67;;;9.35;;
63906;SDS011;50075;49.484;11.238;2022-12-18T05:21:39;35.03;;;7.22;;
63906;SDS011;50075;49.484;11.238;2022-12-18T05:24:04;40.22;;;8.27;;
63906;SDS011;50075;49.484;11.238;2022-12-18T05:26:30;38.70;;;9.52;;
63906;SDS011;50075;49.484;11.238;2022-12-18T05:28:55;32.40;;;6.32;;
63906;SDS011;50075;49.484;11.238;2022-12-18T05:31:21;37.80;;;8.35;;
63906;SDS011;50075;49.484;11.238;2022-12-18T05:33:46;49.70;;;11.75;;
63906;SDS011;50075;49.484;11.238;2022-12-18T05:36:11;53.90;;;10.95;;
63906;SDS011;50075;49.484;11.238;2022-12-18T05:38:37;42.47;;;8.77;;
63906;SDS011;50075;49.484;11.238;2022-12-18T05:41:04;55.83;;;9.85;;
63906;SDS011;50075;49.484;11.238;2022-12-18T05:43:30;47.53;;;9.02;;
63906;SDS011;50075;49.484;11.238;2022-12-18T05:45:56;55.25;;;12.77;;
63906;SDS011;50075;49.484;11.238;2022-12-18T05:48:22;73.25;;;17.95;;
63906;SDS011;50075;49.484;11.238;2022-12-18T05:50:49;76.47;;;15.75;;
63906;SDS011;50075;49.484;11.238;2022-12-18T05:53:16;53.25;;;11.85;;
63906;SDS011;50075;49.484;11.238;2022-12-18T05:55:44;54.05;;;12.10;;
63906;SDS011;50075;49.484;11.238;2022-12-18T05:58:10;57.47;;;13.65;;
63906;SDS011;50075;49.484;11.238;2022-12-18T06:00:37;71.75;;;16.10;;
63906;SDS011;50075;49.484;11.238;2022-12-18T06:03:07;64.97;;;14.38;;
63906;SDS011;50075;49.484;11.238;2022-12-18T06:05:38;47.25;;;12.30;;
63906;SDS011;50075;49.484;11.238;2022-12-18T06:10:32;44.03;;;10.52;;
63906;SDS011;50075;49.484;11.238;2022-12-18T06:12:57;57.00;;;13.32;;
63906;SDS011;50075;49.484;11.238;2022-12-18T06:15:23;36.72;;;7.88;;
63906;SDS011;50075;49.484;11.238;2022-12-18T06:17:49;66.97;;;13.77;;
63906;SDS011;50075;49.484;11.238;2022-12-18T06:20:14;36.17;;;7.88;;
63906;SDS011;50075;49.484;11.238;2022-12-18T06:22:40;51.95;;;13.95;;
63906;SDS011;50075;49.484;11.238;2022-12-18T06:25:05;57.75;;;13.93;;
63906;SDS011;50075;49.484;11.238;2022-12-18T06:27:31;57.58;;;13.18;;
63906;SDS011;50075;49.484;11.238;2022-12-18T06:29:58;57.53;;;13.43;;
63906;SDS011;50075;49.484;11.238;2022-12-18T06:32:24;56.83;;;13.98;;
63906;SDS011;50075;49.484;11.238;2022-12-18T06:34:49;43.40;;;11.98;;
63906;SDS011;50075;49.484;11.238;2022-12-18T06:37:14;44.30;;;10.57;;
63906;SDS011;50075;49.484;11.238;2022-12-18T06:39:40;50.88;;;9.88;;
63906;SDS011;50075;49.484;11.238;2022-12-18T06:42:05;65.82;;;16.15;;
63906;SDS011;50075;49.484;11.238;2022-12-18T06:44:30;46.78;;;11.20;;
63906;SDS011;50075;49.484;11.238;2022-12-18T06:46:56;43.83;;;10.05;;
63906;SDS011;50075;49.484;11.238;2022-12-18T06:49:21;42.70;;;7.40;;
63906;SDS011;50075;49.484;11.238;2022-12-18T06:51:46;47.42;;;10.93;;
63906;SDS011;50075;49.484;11.238;2022-12-18T06:54:12;49.92;;;11.35;;
63906;SDS011;50075;49.484;11.238;2022-12-18T06:56:37;47.03;;;11.20;;
63906;SDS011;50075;49.484;11.238;2022-12-18T06:59:03;47.67;;;12.52;;
63906;SDS011;50075;49.484;11.238;2022-12-18T07:01:28;42.95;;;9.32;;
63906;SDS011;50075;49.484;11.238;2022-12-18T07:03:54;48.28;;;11.95;;
63906;SDS011;50075;49.484;11.238;2022-12-18T07:06:21;50.58;;;11.32;;
63906;SDS011;50075;49.484;11.238;2022-12-18T07:08:48;35.72;;;8.48;;
63906;SDS011;50075;49.484;11.238;2022-12-18T07:11:15;52.38;;;9.30;;
63906;SDS011;50075;49.484;11.238;2022-12-18T07:13:41;41.47;;;10.07;;
63906;SDS011;50075;49.484;11.238;2022-12-18T07:16:11;41.28;;;10.13;;
63906;SDS011;50075;49.484;11.238;2022-12-18T07:18:37;61.97;;;13.73;;
63906;SDS011;50075;49.484;11.238;2022-12-18T07:21:07;60.45;;;12.57;;
63906;SDS011;50075;49.484;11.238;2022-12-18T07:23:34;65.63;;;14.33;;
63906;SDS011;50075;49.484;11.238;2022-12-18T07:26:03;60.05;;;12.43;;
63906;SDS011;50075;49.484;11.238;2022-12-18T07:28:30;55.35;;;13.75;;
63906;SDS011;50075;49.484;11.238;2022-12-18T07:30:56;58.50;;;13.18;;
63906;SDS011;50075;49.484;11.238;2022-12-18T07:33:22;52.33;;;11.48;;
63906;SDS011;50075;49.484;11.238;2022-12-18T07:35:47;41.42;;;8.68;;
63906;SDS011;50075;49.484;11.238;2022-12-18T07:38:13;51.90;;;12.52;;
63906;SDS011;50075;49.484;11.238;2022-12-18T07:40:38;74.45;;;15.02;;
63906;SDS011;50075;49.484;11.238;2022-12-18T07:43:03;54.80;;;13.80;;
63906;SDS011;50075;49.484;11.238;2022-12-18T07:45:29;66.63;;;16.17;;
63906;SDS011;50075;49.484;11.238;2022-12-18T07:47:54;53.70;;;12.57;;
63906;SDS011;50075;49.484;11.238;2022-12-18T07:50:19;56.50;;;13.63;;
63906;SDS011;50075;49.484;11.238;2022-12-18T07:52:45;60.85;;;15.07;;
63906;SDS011;50075;49.484;11.238;2022-12-18T07:55:10;65.63;;;16.02;;
63906;SDS011;50075;49.484;11.238;2022-12-18T07:57:35;51.83;;;9.90;;
63906;SDS011;50075;49.484;11.238;2022-12-18T08:00:01;65.03;;;13.93;;
63906;SDS011;50075;49.484;11.238;2022-12-18T08:02:26;43.97;;;9.52;;
63906;SDS011;50075;49.484;11.238;2022-12-18T08:04:55;56.35;;;13.23;;
63906;SDS011;50075;49.484;11.238;2022-12-18T08:07:20;39.97;;;11.38;;
63906;SDS011;50075;49.484;11.238;2022-12-18T08:09:45;61.92;;;15.73;;
63906;SDS011;50075;49.484;11.238;2022-12-18T08:12:11;28.63;;;7.35;;
63906;SDS011;50075;49.484;11.238;2022-12-18T08:14:36;43.47;;;11.10;;
63906;SDS011;50075;49.484;11.238;2022-12-18T08:17:02;47.75;;;12.55;;
63906;SDS011;50075;49.484;11.238;2022-12-18T08:19:27;34.67;;;8.27;;
63906;SDS011;50075;49.484;11.238;2022-12-18T08:21:52;84.45;;;13.85;;
63906;SDS011;50075;49.484;11.238;2022-12-18T08:24:18;60.92;;;14.07;;
63906;SDS011;50075;49.484;11.238;2022-12-18T08:26:43;41.17;;;11.60;;
63906;SDS011;50075;49.484;11.238;2022-12-18T08:29:11;48.20;;;11.75;;
63906;SDS011;50075;49.484;11.238;2022-12-18T08:31:37;36.20;;;11.68;;
63906;SDS011;50075;49.484;11.238;2022-12-18T08:34:02;34.20;;;10.25;;
63906;SDS011;50075;49.484;11.238;2022-12-18T08:36:28;47.72;;;12.05;;
63906;SDS011;50075;49.484;11.238;2022-12-18T08:38:53;43.05;;;11.95;;
63906;SDS011;50075;49.484;11.238;2022-12-18T08:41:19;48.20;;;12.48;;
63906;SDS011;50075;49.484;11.238;2022-12-18T08:43:45;43.28;;;10.23;;
63906;SDS011;50075;49.484;11.238;2022-12-18T08:46:39;44.53;;;11.50;;
63906;SDS011;50075;49.484;11.238;2022-12-18T08:49:07;106.70;;;16.15;;
63906;SDS011;50075;49.484;11.238;2022-12-18T08:51:33;61.45;;;16.08;;
63906;SDS011;50075;49.484;11.238;2022-12-18T08:53:59;35.72;;;9.13;;
63906;SDS011;50075;49.484;11.238;2022-12-18T08:56:25;47.85;;;12.90;;
63906;SDS011;50075;49.484;11.238;2022-12-18T08:58:51;50.78;;;11.27;;
63906;SDS011;50075;49.484;11.238;2022-12-18T09:01:18;32.90;;;6.65;;
63906;SDS011;50075;49.484;11.238;2022-12-18T09:03:47;52.97;;;15.23;;
63906;SDS011;50075;49.484;11.238;2022-12-18T09:08:43;38.33;;;8.55;;
63906;SDS011;50075;49.484;11.238;2022-12-18T09:11:11;47.65;;;11.55;;
63906;SDS011;50075;49.484;11.238;2022-12-18T09:13:39;38.80;;;10.07;;
63906;SDS011;50075;49.484;11.238;2022-12-18T09:16:04;47.38;;;11.88;;
63906;SDS011;50075;49.484;11.238;2022-12-18T09:18:29;49.40;;;12.02;;
63906;SDS011;50075;49.484;11.238;2022-12-18T09:20:55;41.67;;;10.10;;
63906;SDS011;50075;49.484;11.238;2022-12-18T09:23:20;35.92;;;9.05;;
63906;SDS011;50075;49.484;11.238;2022-12-18T09:25:46;50.30;;;12.57;;
63906;SDS011;50075;49.484;11.238;2022-12-18T09:28:12;52.25;;;12.50;;
63906;SDS011;50075;49.484;11.238;2022-12-18T09:30:40;63.20;;;14.23;;
63906;SDS011;50075;49.484;11.238;2022-12-18T09:33:06;46.63;;;10.77;;
63906;SDS011;50075;49.484;11.238;2022-12-18T09:35:32;46.42;;;12.68;;
63906;SDS011;50075;49.484;11.238;2022-12-18T09:37:57;42.05;;;12.20;;
63906;SDS011;50075;49.484;11.238;2022-12-18T09:40:24;49.97;;;13.40;;
63906;SDS011;50075;49.484;11.238;2022-12-18T09:42:57;56.53;;;17.33;;
63906;SDS011;50075;49.484;11.238;2022-12-18T09:45:27;43.40;;;11.57;;
63906;SDS011;50075;49.484;11.238;2022-12-18T09:47:55;44.78;;;12.90;;
63906;SDS011;50075;49.484;11.238;2022-12-18T09:50:31;59.17;;;13.15;;
63906;SDS011;50075;49.484;11.238;2022-12-18T09:53:02;53.38;;;12.32;;
63906;SDS011;50075;49.484;11.238;2022-12-18T09:55:36;53.83;;;14.63;;
63906;SDS011;50075;49.484;11.238;2022-12-18T09:58:15;41.22;;;10.43;;
63906;SDS011;50075;49.484;11.238;2022-12-18T10:00:41;52.47;;;11.48;;
63906;SDS011;50075;49.484;11.238;2022-12-18T10:03:10;51.13;;;12.90;;
63906;SDS011;50075;49.484;11.238;2022-12-18T10:08:34;52.72;;;12.95;;
63906;SDS011;50075;49.484;11.238;2022-12-18T10:11:21;52.97;;;15.15;;
63906;SDS011;50075;49.484;11.238;2022-12-18T10:13:57;53.85;;;16.23;;
63906;SDS011;50075;49.484;11.238;2022-12-18T10:21:59;83.30;;;13.43;;
63906;SDS011;50075;49.484;11.238;2022-12-18T10:24:34;55.88;;;15.80;;
63906;SDS011;50075;49.484;11.238;2022-12-18T10:27:12;55.00;;;14.05;;
63906;SDS011;50075;49.484;11.238;2022-12-18T10:29:40;53.17;;;12.50;;
63906;SDS011;50075;49.484;11.238;2022-12-18T10:32:08;40.00;;;9.90;;
63906;SDS011;50075;49.484;11.238;2022-12-18T10:34:40;51.97;;;12.65;;
63906;SDS011;50075;49.484;11.238;2022-12-18T10:37:06;52.30;;;15.43;;
63906;SDS011;50075;49.484;11.238;2022-12-18T10:39:37;51.03;;;13.85;;
63906;SDS011;50075;49.484;11.238;2022-12-18T10:42:18;52.13;;;13.02;;
63906;SDS011;50075;49.484;11.238;2022-12-18T10:44:45;54.95;;;12.02;;
63906;SDS011;50075;49.484;11.238;2022-12-18T10:47:12;50.70;;;11.63;;
63906;SDS011;50075;49.484;11.238;2022-12-18T10:49:50;44.70;;;10.52;;
63906;SDS011;50075;49.484;11.238;2022-12-18T10:52:23;31.90;;;7.28;;
63906;SDS011;50075;49.484;11.238;2022-12-18T10:54:51;39.50;;;11.60;;
63906;SDS011;50075;49.484;11.238;2022-12-18T10:59:52;36.10;;;9.13;;
63906;SDS011;50075;49.484;11.238;2022-12-18T11:02:28;47.50;;;12.50;;
63906;SDS011;50075;49.484;11.238;2022-12-18T11:04:59;40.05;;;10.00;;
63906;SDS011;50075;49.484;11.238;2022-12-18T11:07:25;41.10;;;11.90;;
63906;SDS011;50075;49.484;11.238;2022-12-18T11:10:16;48.40;;;12.23;;
63906;SDS011;50075;49.484;11.238;2022-12-18T11:12:43;38.20;;;11.07;;
63906;SDS011;50075;49.484;11.238;2022-12-18T11:15:19;41.83;;;11.85;;
63906;SDS011;50075;49.484;11.238;2022-12-18T11:17:49;32.08;;;9.02;;
63906;SDS011;50075;49.484;11.238;2022-12-18T11:22:43;40.30;;;11.05;;
63906;SDS011;50075;49.484;11.238;2022-12-18T11:25:20;53.40;;;12.13;;
63906;SDS011;50075;49.484;11.238;2022-12-18T11:28:05;49.20;;;14.43;;
63906;SDS011;50075;49.484;11.238;2022-12-18T11:31:08;54.85;;;12.10;;
63906;SDS011;50075;49.484;11.238;2022-12-18T11:33:44;41.73;;;11.70;;
63906;SDS011;50075;49.484;11.238;2022-12-18T11:36:16;37.63;;;10.50;;
63906;SDS011;50075;49.484;11.238;2022-12-18T11:38:42;33.28;;;8.55;;
63906;SDS011;50075;49.484;11.238;2022-12-18T11:43:48;48.33;;;11.77;;
63906;SDS011;50075;49.484;11.238;2022-12-18T11:46:25;42.30;;;9.80;;
63906;SDS011;50075;49.484;11.238;2022-12-18T11:48:58;46.40;;;11.23;;
63906;SDS011;50075;49.484;11.238;2022-12-18T11:51:32;38.42;;;10.15;;
63906;SDS011;50075;49.484;11.238;2022-12-18T11:54:00;44.63;;;12.80;;
63906;SDS011;50075;49.484;11.238;2022-12-18T11:56:36;39.72;;;11.98;;
63906;SDS011;50075;49.484;11.238;2022-12-18T11:59:12;41.15;;;10.85;;
63906;SDS011;50075;49.484;11.238;2022-12-18T12:04:26;43.33;;;12.65;;
63906;SDS011;50075;49.484;11.238;2022-12-18T12:09:21;41.60;;;12.35;;
63906;SDS011;50075;49.484;11.238;2022-12-18T12:16:59;44.67;;;12.50;;
63906;SDS011;50075;49.484;11.238;2022-12-18T12:22:10;42.15;;;10.85;;
63906;SDS011;50075;49.484;11.238;2022-12-18T12:38:22;50.35;;;11.75;;
63906;SDS011;50075;49.484;11.238;2022-12-18T12:40:51;49.00;;;11.52;;
63906;SDS011;50075;49.484;11.238;2022-12-18T12:43:27;50.38;;;11.52;;
63906;SDS011;50075;49.484;11.238;2022-12-18T12:46:11;39.78;;;10.25;;
63906;SDS011;50075;49.484;11.238;2022-12-18T12:48:49;28.27;;;6.75;;
63906;SDS011;50075;49.484;11.238;2022-12-18T12:51:21;47.58;;;11.43;;
63906;SDS011;50075;49.484;11.238;2022-12-18T12:53:50;47.78;;;11.23;;
63906;SDS011;50075;49.484;11.238;2022-12-18T12:56:17;47.63;;;11.43;;
63906;SDS011;50075;49.484;11.238;2022-12-18T13:08:21;37.00;;;9.93;;
63906;SDS011;50075;49.484;11.238;2022-12-18T13:10:51;62.78;;;12.00;;
63906;SDS011;50075;49.484;11.238;2022-12-18T13:13:55;28.20;;;7.28;;
63906;SDS011;50075;49.484;11.238;2022-12-18T13:16:22;37.38;;;11.02;;
63906;SDS011;50075;49.484;11.238;2022-12-18T13:18:55;45.72;;;11.00;;
63906;SDS011;50075;49.484;11.238;2022-12-18T13:21:31;53.92;;;12.43;;
63906;SDS011;50075;49.484;11.238;2022-12-18T13:24:43;40.90;;;10.02;;
63906;SDS011;50075;49.484;11.238;2022-12-18T13:26:51;52.47;;;12.40;;
63906;SDS011;50075;49.484;11.238;2022-12-18T13:30:02;48.85;;;11.57;;
63906;SDS011;50075;49.484;11.238;2022-12-18T13:32:17;44.65;;;12.00;;
63906;SDS011;50075;49.484;11.238;2022-12-18T13:34:45;38.53;;;10.63;;
63906;SDS011;50075;49.484;11.238;2022-12-18T13:40:20;38.75;;;10.73;;
63906;SDS011;50075;49.484;11.238;2022-12-18T13:45:48;53.10;;;11.77;;
63906;SDS011;50075;49.484;11.238;2022-12-18T13:48:24;37.60;;;10.00;;
63906;SDS011;50075;49.484;11.238;2022-12-18T13:50:56;92.15;;;16.30;;
63906;SDS011;50075;49.484;11.238;2022-12-18T13:53:28;48.67;;;12.63;;
63906;SDS011;50075;49.484;11.238;2022-12-18T13:55:57;51.55;;;13.55;;
63906;SDS011;50075;49.484;11.238;2022-12-18T13:58:23;61.67;;;13.43;;
63906;SDS011;50075;49.484;11.238;2022-12-18T14:00:48;68.80;;;14.43;;
63906;SDS011;50075;49.484;11.238;2022-12-18T14:03:31;58.55;;;12.60;;
63906;SDS011;50075;49.484;11.238;2022-12-18T14:06:15;57.53;;;12.98;;
63906;SDS011;50075;49.484;11.238;2022-12-18T14:08:41;42.70;;;11.30;;
63906;SDS011;50075;49.484;11.238;2022-12-18T14:11:17;47.35;;;11.75;;
63906;SDS011;50075;49.484;11.238;2022-12-18T14:13:47;56.30;;;13.25;;
63906;SDS011;50075;49.484;11.238;2022-12-18T14:16:14;59.30;;;13.82;;
63906;SDS011;50075;49.484;11.238;2022-12-18T14:18:45;64.90;;;14.35;;
63906;SDS011;50075;49.484;11.238;2022-12-18T14:21:24;35.92;;;10.13;;
63906;SDS011;50075;49.484;11.238;2022-12-18T14:24:04;46.15;;;11.85;;
63906;SDS011;50075;49.484;11.238;2022-12-18T14:26:41;106.82;;;17.58;;
63906;SDS011;50075;49.484;11.238;2022-12-18T14:34:30;45.55;;;10.95;;
63906;SDS011;50075;49.484;11.238;2022-12-18T14:36:55;40.90;;;10.20;;
63906;SDS011;50075;49.484;11.238;2022-12-18T14:39:21;57.83;;;12.13;;
63906;SDS011;50075;49.484;11.238;2022-12-18T14:41:48;54.25;;;11.70;;
63906;SDS011;50075;49.484;11.238;2022-12-18T14:44:13;51.25;;;11.63;;
63906;SDS011;50075;49.484;11.238;2022-12-18T14:46:39;47.45;;;12.45;;
63906;SDS011;50075;49.484;11.238;2022-12-18T14:52:17;53.58;;;11.63;;
63906;SDS011;50075;49.484;11.238;2022-12-18T14:54:52;63.28;;;15.45;;
63906;SDS011;50075;49.484;11.238;2022-12-18T14:57:22;54.15;;;12.45;;
63906;SDS011;50075;49.484;11.238;2022-12-18T14:59:50;53.33;;;12.35;;
63906;SDS011;50075;49.484;11.238;2022-12-18T15:02:25;52.65;;;12.00;;
63906;SDS011;50075;49.484;11.238;2022-12-18T15:07:40;48.53;;;12.27;;
63906;SDS011;50075;49.484;11.238;2022-12-18T15:12:43;56.05;;;13.23;;
63906;SDS011;50075;49.484;11.238;2022-12-18T15:18:12;56.40;;;13.38;;
63906;SDS011;50075;49.484;11.238;2022-12-18T15:23:23;48.17;;;8.85;;
63906;SDS011;50075;49.484;11.238;2022-12-18T15:26:08;59.45;;;11.00;;
63906;SDS011;50075;49.484;11.238;2022-12-18T15:28:39;60.50;;;11.80;;
63906;SDS011;50075;49.484;11.238;2022-12-18T15:33:39;45.97;;;10.15;;
63906;SDS011;50075;49.484;11.238;2022-12-18T15:36:10;63.97;;;12.88;;
63906;SDS011;50075;49.484;11.238;2022-12-18T15:38:39;47.15;;;14.40;;
63906;SDS011;50075;49.484;11.238;2022-12-18T15:41:05;67.60;;;13.98;;
63906;SDS011;50075;49.484;11.238;2022-12-18T15:43:34;59.38;;;13.57;;
63906;SDS011;50075;49.484;11.238;2022-12-18T15:48:34;55.65;;;13.48;;
63906;SDS011;50075;49.484;11.238;2022-12-18T15:51:04;85.55;;;15.45;;
63906;SDS011;50075;49.484;11.238;2022-12-18T15:53:31;65.50;;;14.10;;
63906;SDS011;50075;49.484;11.238;2022-12-18T15:55:58;56.20;;;14.38;;
63906;SDS011;50075;49.484;11.238;2022-12-18T15:58:42;79.03;;;15.30;;
63906;SDS011;50075;49.484;11.238;2022-12-18T16:01:08;92.45;;;16.08;;
63906;SDS011;50075;49.484;11.238;2022-12-18T16:03:35;74.10;;;13.82;;
63906;SDS011;50075;49.484;11.238;2022-12-18T16:06:01;54.58;;;12.60;;
63906;SDS011;50075;49.484;11.238;2022-12-18T16:08:27;74.90;;;15.15;;
63906;SDS011;50075;49.484;11.238;2022-12-18T16:10:54;76.68;;;15.23;;